createdAt,value
2018-09-15T00:02:09.340Z,6.43
2018-09-15T00:04:37.944Z,6.00
2018-09-15T00:07:07.071Z,5.93
2018-09-15T00:09:36.609Z,5.53
2018-09-15T00:12:05.084Z,5.70
2018-09-15T00:14:33.990Z,5.90
2018-09-15T00:17:02.566Z,5.93
2018-09-15T00:19:31.082Z,5.33
2018-09-15T00:21:59.569Z,6.80
2018-09-15T00:24:28.043Z,5.77
2018-09-15T00:26:56.647Z,5.73
2018-09-15T00:29:25.146Z,5.60
2018-09-15T00:31:54.829Z,5.43
2018-09-15T00:34:23.360Z,5.50
2018-09-15T00:36:52.687Z,5.67
2018-09-15T00:39:21.192Z,5.90
2018-09-15T00:41:50.233Z,5.73
2018-09-15T00:44:18.692Z,5.30
2018-09-15T00:46:47.876Z,5.97
2018-09-15T00:49:17.105Z,6.30
2018-09-15T00:51:45.667Z,5.80
2018-09-15T00:54:14.312Z,6.30
2018-09-15T00:56:43.569Z,6.60
2018-09-15T00:59:14.874Z,6.77
2018-09-15T01:01:43.408Z,6.67
2018-09-15T01:04:11.887Z,6.30
2018-09-15T01:06:40.416Z,7.10
2018-09-15T01:09:09.839Z,6.60
2018-09-15T01:11:38.489Z,5.63
2018-09-15T01:14:07.416Z,5.97
2018-09-15T01:16:37.404Z,6.03
2018-09-15T01:19:06.137Z,6.07
2018-09-15T01:21:35.007Z,5.50
2018-09-15T01:24:03.533Z,5.13
2018-09-15T01:26:32.039Z,5.47
2018-09-15T01:29:00.574Z,5.57
2018-09-15T01:31:29.594Z,6.00
2018-09-15T01:33:58.055Z,5.10
2018-09-15T01:36:26.540Z,5.43
2018-09-15T01:38:56.288Z,5.30
2018-09-15T01:41:24.798Z,5.20
2018-09-15T01:43:53.415Z,5.30
2018-09-15T01:46:22.033Z,5.03
2018-09-15T01:48:50.616Z,5.33
2018-09-15T01:51:20.655Z,5.00
2018-09-15T01:53:49.273Z,4.60
2018-09-15T01:56:17.735Z,5.20
2018-09-15T01:58:46.823Z,5.63
2018-09-15T02:01:15.320Z,6.17
2018-09-15T02:03:43.783Z,5.83
2018-09-15T02:06:12.273Z,6.23
2018-09-15T02:08:40.734Z,6.00
2018-09-15T02:11:09.219Z,6.37
2018-09-15T02:13:37.647Z,5.70
2018-09-15T02:16:06.282Z,5.87
2018-09-15T02:18:34.816Z,5.50
2018-09-15T02:21:06.476Z,5.23
2018-09-15T02:23:35.077Z,5.60
2018-09-15T02:26:03.553Z,5.77
2018-09-15T02:28:32.065Z,5.90
2018-09-15T02:31:00.554Z,6.07
2018-09-15T02:33:29.004Z,6.50
2018-09-15T02:35:57.538Z,6.07
2018-09-15T02:38:26.532Z,5.23
2018-09-15T02:40:55.044Z,5.37
2018-09-15T02:43:23.580Z,5.63
2018-09-15T02:45:52.041Z,5.73
2018-09-15T02:48:20.554Z,5.53
2018-09-15T02:50:49.136Z,5.67
2018-09-15T02:53:17.574Z,6.77
2018-09-15T02:55:46.058Z,5.77
2018-09-15T02:58:14.531Z,5.97
2018-09-15T03:00:43.077Z,4.70
2018-09-15T03:03:11.584Z,5.00
2018-09-15T03:05:40.089Z,5.40
2018-09-15T03:08:08.592Z,5.40
2018-09-15T03:10:37.799Z,5.10
2018-09-15T03:13:06.865Z,5.63
2018-09-15T03:15:35.511Z,5.70
2018-09-15T03:18:04.025Z,5.07
2018-09-15T03:20:32.615Z,5.87
2018-09-15T03:23:01.130Z,5.23
2018-09-15T03:25:29.663Z,6.03
2018-09-15T03:27:58.215Z,5.13
2018-09-15T03:30:26.755Z,5.03
2018-09-15T03:32:55.808Z,5.43
2018-09-15T03:35:24.499Z,5.67
2018-09-15T03:37:53.020Z,5.17
2018-09-15T03:40:21.668Z,6.10
2018-09-15T03:42:50.237Z,5.60
2018-09-15T03:45:18.668Z,5.43
2018-09-15T03:47:47.166Z,4.87
2018-09-15T03:50:15.681Z,5.20
2018-09-15T03:52:44.269Z,4.67
2018-09-15T03:55:12.720Z,4.70
2018-09-15T03:57:41.203Z,4.10
2018-09-15T04:00:10.361Z,4.67
2018-09-15T04:02:38.902Z,5.20
2018-09-15T04:05:07.414Z,4.77
2018-09-15T04:09:05.043Z,4.90
2018-09-15T04:11:33.528Z,4.37
2018-09-15T04:14:02.525Z,4.30
2018-09-15T04:16:31.458Z,4.67
2018-09-15T04:18:59.970Z,4.77
2018-09-15T04:21:28.525Z,4.60
2018-09-15T04:23:57.058Z,4.63
2018-09-15T04:26:26.027Z,4.23
2018-09-15T04:28:55.271Z,4.90
2018-09-15T04:31:23.691Z,4.60
2018-09-15T04:33:52.836Z,4.57
2018-09-15T04:36:21.335Z,5.37
2018-09-15T04:38:51.367Z,4.77
2018-09-15T04:41:19.870Z,5.23
2018-09-15T04:43:48.392Z,4.87
2018-09-15T04:46:16.798Z,5.23
2018-09-15T04:48:45.368Z,4.67
2018-09-15T04:51:13.856Z,4.60
2018-09-15T04:53:42.327Z,4.40
2018-09-15T04:56:11.501Z,4.27
2018-09-15T04:58:40.142Z,4.40
2018-09-15T05:01:08.668Z,4.10
2018-09-15T05:03:37.253Z,4.30
2018-09-15T05:06:05.755Z,4.07
2018-09-15T05:08:34.895Z,4.10
2018-09-15T05:11:03.430Z,3.80
2018-09-15T05:13:31.920Z,4.10
2018-09-15T05:16:01.149Z,4.00
2018-09-15T05:18:29.633Z,4.37
2018-09-15T05:20:58.077Z,4.53
2018-09-15T05:23:26.558Z,4.47
2018-09-15T05:25:55.049Z,4.70
2018-09-15T05:28:23.529Z,7.47
2018-09-15T05:30:51.976Z,6.33
2018-09-15T05:33:20.493Z,4.83
2018-09-15T05:35:49.026Z,4.87
2018-09-15T05:38:17.563Z,5.13
2018-09-15T05:40:46.118Z,5.37
2018-09-15T05:43:16.056Z,5.30
2018-09-15T05:45:45.206Z,5.30
2018-09-15T05:48:13.915Z,5.00
2018-09-15T05:50:42.635Z,5.17
2018-09-15T05:53:11.147Z,5.13
2018-09-15T05:55:39.630Z,5.20
2018-09-15T05:58:08.535Z,4.87
2018-09-15T06:00:37.189Z,4.93
2018-09-15T06:03:05.580Z,5.10
2018-09-15T06:05:34.036Z,5.10
2018-09-15T06:08:02.596Z,4.90
2018-09-15T06:10:31.066Z,5.10
2018-09-15T06:12:59.580Z,4.90
2018-09-15T06:15:28.070Z,5.03
2018-09-15T06:17:56.608Z,5.27
2018-09-15T06:20:26.662Z,5.97
2018-09-15T06:22:55.245Z,6.20
2018-09-15T06:25:23.717Z,5.07
2018-09-15T06:27:52.280Z,6.13
2018-09-15T06:30:21.100Z,5.60
2018-09-15T06:32:49.731Z,5.53
2018-09-15T06:35:18.308Z,5.40
2018-09-15T06:37:46.922Z,6.07
2018-09-15T06:40:15.404Z,5.10
2018-09-15T06:42:43.927Z,5.77
2018-09-15T06:45:12.715Z,5.40
2018-09-15T06:47:41.242Z,6.10
2018-09-15T06:50:09.799Z,7.47
2018-09-15T06:52:38.328Z,7.37
2018-09-15T06:55:06.884Z,5.90
2018-09-15T06:57:35.418Z,5.67
2018-09-15T07:00:04.234Z,5.40
2018-09-15T07:02:32.728Z,5.67
2018-09-15T07:05:01.208Z,6.07
2018-09-15T07:07:29.665Z,5.83
2018-09-15T07:09:58.981Z,5.77
2018-09-15T07:12:27.442Z,5.67
2018-09-15T07:14:55.926Z,5.03
2018-09-15T07:17:24.390Z,6.03
2018-09-15T07:19:53.074Z,5.77
2018-09-15T07:22:21.555Z,5.97
2018-09-15T07:24:50.739Z,6.40
2018-09-15T07:27:19.212Z,5.60
2018-09-15T07:29:47.666Z,6.10
2018-09-15T07:32:16.230Z,5.60
2018-09-15T07:34:44.756Z,5.60
2018-09-15T07:37:13.247Z,5.47
2018-09-15T07:39:43.074Z,5.77
2018-09-15T07:42:11.575Z,5.93
2018-09-15T07:44:40.147Z,5.70
2018-09-15T07:47:08.606Z,5.17
2018-09-15T07:49:37.126Z,5.23
2018-09-15T07:52:05.619Z,5.63
2018-09-15T07:54:34.157Z,5.17
2018-09-15T07:57:03.149Z,5.30
2018-09-15T07:59:31.740Z,4.90
2018-09-15T08:02:00.323Z,5.37
2018-09-15T08:04:28.839Z,5.43
2018-09-15T08:06:57.960Z,4.93
2018-09-15T08:09:26.519Z,5.20
2018-09-15T08:11:55.146Z,4.90
2018-09-15T08:14:23.839Z,4.27
2018-09-15T08:16:52.367Z,5.53
2018-09-15T08:19:20.943Z,5.07
2018-09-15T08:21:50.875Z,5.30
2018-09-15T08:24:19.438Z,3.70
2018-09-15T08:26:48.550Z,4.27
2018-09-15T08:29:17.173Z,5.13
2018-09-15T08:31:46.188Z,4.50
2018-09-15T08:34:15.719Z,4.37
2018-09-15T08:36:44.359Z,4.87
2018-09-15T08:39:12.980Z,4.37
2018-09-15T08:41:41.577Z,5.53
2018-09-15T08:44:11.308Z,5.30
2018-09-15T08:46:41.537Z,5.37
2018-09-15T08:49:10.268Z,4.87
2018-09-15T08:51:38.910Z,6.67
2018-09-15T08:54:07.478Z,4.70
2018-09-15T08:56:36.008Z,6.30
2018-09-15T08:59:04.547Z,5.20
2018-09-15T09:01:34.092Z,7.40
2018-09-15T09:04:02.939Z,7.33
2018-09-15T09:06:31.624Z,6.73
2018-09-15T09:09:00.102Z,7.17
2018-09-15T09:11:28.616Z,7.37
2018-09-15T09:13:57.184Z,6.47
2018-09-15T09:16:26.717Z,6.93
2018-09-15T09:18:55.360Z,7.50
2018-09-15T09:21:23.916Z,7.87
2018-09-15T09:23:52.523Z,7.17
2018-09-15T09:26:21.251Z,6.23
2018-09-15T09:28:49.853Z,6.00
2018-09-15T09:31:18.433Z,5.10
2018-09-15T09:33:46.908Z,6.00
2018-09-15T09:36:15.465Z,5.43
2018-09-15T09:38:44.104Z,4.27
2018-09-15T09:41:12.660Z,4.07
2018-09-15T09:43:41.224Z,5.07
2018-09-15T09:46:10.308Z,4.17
2018-09-15T09:48:38.887Z,5.83
2018-09-15T09:51:07.988Z,5.10
2018-09-15T09:53:37.095Z,6.57
2018-09-15T09:56:05.673Z,3.60
2018-09-15T09:58:35.730Z,4.20
2018-09-15T10:01:09.517Z,2.70
2018-09-15T10:03:37.964Z,2.13
2018-09-15T10:06:06.555Z,2.10
2018-09-15T10:08:36.239Z,2.10
2018-09-15T10:11:05.748Z,1.93
2018-09-15T10:13:34.252Z,1.70
2018-09-15T10:16:02.941Z,1.83
2018-09-15T10:18:31.828Z,1.90
2018-09-15T10:21:00.516Z,2.13
2018-09-15T10:23:29.684Z,2.00
2018-09-15T10:25:58.283Z,1.70
2018-09-15T10:28:26.827Z,1.70
2018-09-15T10:30:55.435Z,1.63
2018-09-15T10:33:23.975Z,1.40
2018-09-15T10:35:52.528Z,1.47
2018-09-15T10:38:21.412Z,1.40
2018-09-15T10:40:50.168Z,1.33
2018-09-15T10:43:18.881Z,1.50
2018-09-15T10:45:47.478Z,1.30
2018-09-15T10:48:16.594Z,1.40
2018-09-15T10:50:45.183Z,1.10
2018-09-15T10:53:13.672Z,1.27
2018-09-15T10:55:42.448Z,1.30
2018-09-15T10:58:13.055Z,1.20
2018-09-15T11:00:41.548Z,1.27
2018-09-15T11:03:10.723Z,1.00
2018-09-15T11:05:39.268Z,1.40
2018-09-15T11:08:08.671Z,1.30
2018-09-15T11:10:37.193Z,1.30
2018-09-15T11:13:06.364Z,1.30
2018-09-15T11:15:33.807Z,1.20
2018-09-15T11:18:02.513Z,0.83
2018-09-15T11:20:31.028Z,0.90
2018-09-15T11:22:59.702Z,1.50
2018-09-15T11:25:29.440Z,1.20
2018-09-15T11:27:58.047Z,1.20
2018-09-15T11:30:27.676Z,1.00
2018-09-15T11:32:56.256Z,0.80
2018-09-15T11:35:24.805Z,1.00
2018-09-15T11:37:53.399Z,1.00
2018-09-15T11:40:21.952Z,0.97
2018-09-15T11:42:51.105Z,1.00
2018-09-15T11:45:20.308Z,0.80
2018-09-15T11:47:48.985Z,1.10
2018-09-15T11:50:17.552Z,1.00
2018-09-15T11:52:46.100Z,1.00
2018-09-15T11:55:15.130Z,0.90
2018-09-15T11:57:44.185Z,0.70
2018-09-15T12:00:12.712Z,0.90
2018-09-15T12:02:41.412Z,0.90
2018-09-15T12:05:10.435Z,0.70
2018-09-15T12:07:40.104Z,0.70
2018-09-15T12:10:09.379Z,0.80
2018-09-15T12:12:37.986Z,0.80
2018-09-15T12:15:07.143Z,0.90
2018-09-15T12:17:35.670Z,0.80
2018-09-15T12:20:05.127Z,0.70
2018-09-15T12:22:34.497Z,0.80
2018-09-15T12:25:03.620Z,0.77
2018-09-15T12:27:32.194Z,0.70
2018-09-15T12:30:00.708Z,0.70
2018-09-15T12:32:29.267Z,0.67
2018-09-15T12:34:57.825Z,0.70
2018-09-15T12:37:27.499Z,0.70
2018-09-15T12:39:56.089Z,0.67
2018-09-15T12:42:24.748Z,0.90
2018-09-15T12:44:53.852Z,0.60
2018-09-15T12:47:22.952Z,0.80
2018-09-15T12:49:52.007Z,0.60
2018-09-15T12:52:20.596Z,0.60
2018-09-15T12:54:49.022Z,0.70
2018-09-15T12:57:17.606Z,0.70
2018-09-15T12:59:46.125Z,0.60
2018-09-15T13:02:15.678Z,0.70
2018-09-15T13:04:44.189Z,0.50
2018-09-15T13:07:12.662Z,0.70
2018-09-15T13:09:41.268Z,0.63
2018-09-15T13:12:10.368Z,0.70
2018-09-15T13:14:40.201Z,0.60
2018-09-15T13:17:09.781Z,0.60
2018-09-15T13:19:38.522Z,0.57
2018-09-15T13:22:07.335Z,0.60
2018-09-15T13:24:35.939Z,0.47
2018-09-15T13:27:04.468Z,0.70
2018-09-15T13:29:33.061Z,0.53
2018-09-15T13:32:01.703Z,0.80
2018-09-15T13:34:30.896Z,0.80
2018-09-15T13:36:59.381Z,0.70
2018-09-15T13:39:29.499Z,0.77
2018-09-15T13:41:58.120Z,0.80
2018-09-15T13:44:26.843Z,0.77
2018-09-15T13:46:56.913Z,0.63
2018-09-15T13:49:25.510Z,0.67
2018-09-15T13:51:54.082Z,0.97
2018-09-15T13:54:22.684Z,0.60
2018-09-15T13:56:51.239Z,0.63
2018-09-15T13:59:20.225Z,0.60
2018-09-15T14:01:48.760Z,0.73
2018-09-15T14:04:17.353Z,0.60
2018-09-15T14:06:45.938Z,0.70
2018-09-15T14:09:15.834Z,0.70
2018-09-15T14:11:44.410Z,0.67
2018-09-15T14:14:13.851Z,0.60
2018-09-15T14:16:42.378Z,0.70
2018-09-15T14:19:10.861Z,0.73
2018-09-15T14:21:39.360Z,0.70
2018-09-15T14:24:08.466Z,0.70
2018-09-15T14:26:37.200Z,0.80
2018-09-15T14:29:05.826Z,1.00
2018-09-15T14:31:34.372Z,0.70
2018-09-15T14:34:02.998Z,0.80
2018-09-15T14:36:31.598Z,0.83
2018-09-15T14:39:00.245Z,0.93
2018-09-15T14:41:28.886Z,0.90
2018-09-15T14:43:58.231Z,0.90
2018-09-15T14:46:26.844Z,0.67
2018-09-15T14:48:55.727Z,0.70
2018-09-15T14:51:24.751Z,0.80
2018-09-15T14:53:53.323Z,0.80
2018-09-15T14:56:22.433Z,0.70
2018-09-15T14:58:50.975Z,0.73
2018-09-15T15:01:19.454Z,0.70
2018-09-15T15:03:48.337Z,0.70
2018-09-15T15:06:17.435Z,0.80
2018-09-15T15:08:45.941Z,0.80
2018-09-15T15:11:14.969Z,0.90
2018-09-15T15:13:44.194Z,0.80
2018-09-15T15:16:12.706Z,0.83
2018-09-15T15:18:41.261Z,0.70
2018-09-15T15:21:10.350Z,1.07
2018-09-15T15:23:38.975Z,0.80
2018-09-15T15:26:08.447Z,0.97
2018-09-15T15:28:37.655Z,1.00
2018-09-15T15:31:07.602Z,1.63
2018-09-15T15:33:36.274Z,1.13
2018-09-15T15:36:05.384Z,1.07
2018-09-15T15:38:34.086Z,1.20
2018-09-15T15:41:03.224Z,1.10
2018-09-15T15:43:31.832Z,1.10
2018-09-15T15:46:00.952Z,1.20
2018-09-15T15:48:30.286Z,1.17
2018-09-15T15:50:59.033Z,0.93
2018-09-15T15:53:29.064Z,1.17
2018-09-15T15:55:58.537Z,1.17
2018-09-15T15:58:27.831Z,1.20
2018-09-15T16:00:57.362Z,1.17
2018-09-15T16:03:26.033Z,1.10
2018-09-15T16:05:56.401Z,1.13
2018-09-15T16:08:24.979Z,0.80
2018-09-15T16:10:53.504Z,0.87
2018-09-15T16:13:22.671Z,1.10
2018-09-15T16:15:51.939Z,1.00
2018-09-15T16:18:20.560Z,0.90
2018-09-15T16:20:49.128Z,1.07
2018-09-15T16:23:17.569Z,1.30
2018-09-15T16:25:47.027Z,1.10
2018-09-15T16:28:15.637Z,0.90
2018-09-15T16:30:44.224Z,1.10
2018-09-15T16:33:12.724Z,1.10
2018-09-15T16:35:42.526Z,1.07
2018-09-15T16:38:11.808Z,0.93
2018-09-15T16:40:40.475Z,1.00
2018-09-15T16:43:08.953Z,1.40
2018-09-15T16:45:38.580Z,0.90
2018-09-15T16:48:07.187Z,1.10
2018-09-15T16:50:35.724Z,1.27
2018-09-15T16:53:04.817Z,1.10
2018-09-15T16:55:34.403Z,0.90
2018-09-15T16:58:03.019Z,1.40
2018-09-15T17:00:31.744Z,1.23
2018-09-15T17:03:01.256Z,1.00
2018-09-15T17:05:30.247Z,1.17
2018-09-15T17:07:59.787Z,1.00
2018-09-15T17:10:28.384Z,0.90
2018-09-15T17:12:57.132Z,1.17
2018-09-15T17:15:25.856Z,1.50
2018-09-15T17:17:55.681Z,1.30
2018-09-15T17:20:24.249Z,1.10
2018-09-15T17:22:52.885Z,1.40
2018-09-15T17:25:22.055Z,1.10
2018-09-15T17:27:50.813Z,1.17
2018-09-15T17:30:20.049Z,1.00
2018-09-15T17:32:49.307Z,1.13
2018-09-15T17:35:18.639Z,1.40
2018-09-15T17:37:47.946Z,1.30
2018-09-15T17:40:16.641Z,1.60
2018-09-15T17:42:45.161Z,1.47
2018-09-15T17:45:13.685Z,1.30
2018-09-15T17:47:42.232Z,1.33
2018-09-15T17:50:10.741Z,1.37
2018-09-15T17:52:40.065Z,1.37
2018-09-15T17:55:08.577Z,1.33
2018-09-15T17:57:37.203Z,1.20
2018-09-15T18:00:06.296Z,1.40
2018-09-15T18:02:35.621Z,0.90
2018-09-15T18:05:04.277Z,1.10
2018-09-15T18:07:32.758Z,1.40
2018-09-15T18:10:02.126Z,1.50
2018-09-15T18:12:30.657Z,1.30
2018-09-15T18:14:59.397Z,1.63
2018-09-15T18:17:27.971Z,1.30
2018-09-15T18:19:57.478Z,1.57
2018-09-15T18:22:26.207Z,1.63
2018-09-15T18:24:54.802Z,1.50
2018-09-15T18:27:23.323Z,1.40
2018-09-15T18:29:51.830Z,1.50
2018-09-15T18:32:20.367Z,1.60
2018-09-15T18:34:49.790Z,2.00
2018-09-15T18:37:18.308Z,2.60
2018-09-15T18:39:48.220Z,2.00
2018-09-15T18:42:16.667Z,1.27
2018-09-15T18:44:45.268Z,5.73
2018-09-15T18:47:13.807Z,5.57
2018-09-15T18:49:42.390Z,2.50
2018-09-15T18:52:10.974Z,2.53
2018-09-15T18:54:39.709Z,1.90
2018-09-15T18:57:08.375Z,2.20
2018-09-15T18:59:37.879Z,1.87
2018-09-15T19:02:06.580Z,1.80
2018-09-15T19:04:35.072Z,1.90
2018-09-15T19:07:03.586Z,1.90
2018-09-15T19:09:32.050Z,1.77
2018-09-15T19:12:00.549Z,2.13
2018-09-15T19:14:29.050Z,2.30
2018-09-15T19:16:57.588Z,2.20
2018-09-15T19:19:26.053Z,2.10
2018-09-15T19:21:55.329Z,2.20
2018-09-15T19:24:23.779Z,2.30
2018-09-15T19:26:52.348Z,2.70
2018-09-15T19:29:20.788Z,3.97
2018-09-15T19:31:49.971Z,2.97
2018-09-15T19:34:18.443Z,2.80
2018-09-15T19:36:46.886Z,2.50
2018-09-15T19:39:15.530Z,2.33
2018-09-15T19:41:43.980Z,2.90
2018-09-15T19:44:13.053Z,2.40
2018-09-15T19:46:41.516Z,2.50
2018-09-15T19:49:10.600Z,2.20
2018-09-15T19:51:39.323Z,2.10
2018-09-15T19:54:07.854Z,2.20
2018-09-15T19:56:36.375Z,2.40
2018-09-15T19:59:04.916Z,2.50
2018-09-15T20:01:33.975Z,2.20
2018-09-15T20:04:02.512Z,2.40
2018-09-15T20:06:31.150Z,2.20
2018-09-15T20:08:59.681Z,2.20
2018-09-15T20:11:28.145Z,2.00
2018-09-15T20:13:58.355Z,2.20
2018-09-15T20:16:25.673Z,2.23
2018-09-15T20:18:53.002Z,1.80
2018-09-15T20:21:20.283Z,2.20
2018-09-15T20:23:49.496Z,2.60
2018-09-15T20:26:18.090Z,2.33
2018-09-15T20:28:46.659Z,2.90
2018-09-15T20:31:15.198Z,3.30
2018-09-15T20:33:43.896Z,2.90
2018-09-15T20:36:12.417Z,2.60
2018-09-15T20:38:41.093Z,2.97
2018-09-15T20:41:09.657Z,2.97
2018-09-15T20:43:38.269Z,3.03
2018-09-15T20:46:06.809Z,3.00
2018-09-15T20:48:35.404Z,2.80
2018-09-15T20:51:03.891Z,2.33
2018-09-15T20:53:33.162Z,2.03
2018-09-15T20:56:01.617Z,2.90
2018-09-15T20:58:30.121Z,3.37
2018-09-15T21:00:58.686Z,3.20
2018-09-15T21:03:27.188Z,3.10
2018-09-15T21:05:56.708Z,2.80
2018-09-15T21:08:25.785Z,3.07
2018-09-15T21:10:54.248Z,3.10
2018-09-15T21:13:22.874Z,3.00
2018-09-15T21:15:51.450Z,3.20
2018-09-15T21:18:19.924Z,2.83
2018-09-15T21:20:48.527Z,3.63
2018-09-15T21:23:17.318Z,3.03
2018-09-15T21:25:45.740Z,3.10
2018-09-15T21:28:14.719Z,3.10
2018-09-15T21:30:43.633Z,3.40
2018-09-15T21:33:12.126Z,3.13
2018-09-15T21:35:40.590Z,3.20
2018-09-15T21:38:09.061Z,2.80
2018-09-15T21:40:38.629Z,3.17
2018-09-15T21:43:07.132Z,3.27
2018-09-15T21:45:36.019Z,2.60
2018-09-15T21:48:04.503Z,3.07
2018-09-15T21:50:32.965Z,3.50
2018-09-15T21:53:01.487Z,3.07
2018-09-15T21:55:31.186Z,3.10
2018-09-15T21:58:00.335Z,3.63
2018-09-15T22:00:28.868Z,3.00
2018-09-15T22:02:57.420Z,3.17
2018-09-15T22:05:25.875Z,3.50
2018-09-15T22:07:54.859Z,3.43
2018-09-15T22:10:24.695Z,3.07
2018-09-15T22:12:53.356Z,3.17
2018-09-15T22:15:28.654Z,2.80
2018-09-15T22:17:58.780Z,3.50
2018-09-15T22:20:27.825Z,2.90
2018-09-15T22:22:56.847Z,2.97
2018-09-15T22:25:25.408Z,2.87
2018-09-15T22:27:54.089Z,3.00
2018-09-15T22:30:22.759Z,2.70
2018-09-15T22:32:51.879Z,2.90
2018-09-15T22:35:20.384Z,3.37
2018-09-15T22:37:48.979Z,2.60
2018-09-15T22:40:20.404Z,3.23
2018-09-15T22:42:48.961Z,3.10
2018-09-15T22:45:18.493Z,2.80
2018-09-15T22:47:46.952Z,2.70
2018-09-15T22:50:16.218Z,3.07
2018-09-15T22:52:44.880Z,3.27
2018-09-15T22:55:13.451Z,2.83
2018-09-15T22:57:42.144Z,2.90
2018-09-15T23:00:10.692Z,3.10
2018-09-15T23:02:39.718Z,3.23
2018-09-15T23:05:08.453Z,2.80
2018-09-15T23:07:37.024Z,2.97
2018-09-15T23:10:07.720Z,2.60
2018-09-15T23:12:36.397Z,2.73
2018-09-15T23:15:05.852Z,2.80
2018-09-15T23:17:34.484Z,2.90
2018-09-15T23:20:02.976Z,2.97
2018-09-15T23:22:31.386Z,2.70
2018-09-15T23:25:00.457Z,2.97
2018-09-15T23:27:28.959Z,2.93
2018-09-15T23:29:58.909Z,3.17
2018-09-15T23:32:27.419Z,3.30
2018-09-15T23:34:56.052Z,2.90
2018-09-15T23:37:24.515Z,2.90
2018-09-15T23:39:53.068Z,3.33
2018-09-15T23:42:21.535Z,2.93
2018-09-15T23:44:50.044Z,3.17
2018-09-15T23:47:18.619Z,3.10
2018-09-15T23:49:47.188Z,3.27
2018-09-15T23:52:16.309Z,2.93
2018-09-15T23:54:44.863Z,2.50
2018-09-15T23:57:13.328Z,2.90
2018-09-15T23:59:41.833Z,2.83
